createdAt,value
2022-11-18T00:07:21.475Z,-2.73
2022-11-18T00:17:27.136Z,-2.76
2022-11-18T00:27:33.714Z,-2.82
2022-11-18T00:37:39.523Z,-2.89
2022-11-18T00:47:45.080Z,-2.91
2022-11-18T00:57:50.621Z,-3.05
2022-11-18T01:07:56.254Z,-3.06
2022-11-18T01:18:01.930Z,-3.03
2022-11-18T01:28:08.035Z,-3.00
2022-11-18T01:38:15.203Z,-3.08
2022-11-18T01:48:25.227Z,-3.15
2022-11-18T01:58:37.314Z,-3.20
2022-11-18T02:08:43.732Z,-3.24
2022-11-18T02:18:56.396Z,-3.21
2022-11-18T02:29:09.571Z,-3.16
2022-11-18T02:39:23.258Z,-3.10
2022-11-18T02:49:34.904Z,-3.15
2022-11-18T02:59:40.781Z,-3.25
2022-11-18T03:09:48.913Z,-3.32
2022-11-18T03:20:08.303Z,-3.40
2022-11-18T03:30:17.205Z,-3.40
2022-11-18T03:40:30.159Z,-3.39
2022-11-18T03:50:40.834Z,-3.45
2022-11-18T04:00:49.677Z,-3.46
2022-11-18T04:11:01.718Z,-3.47
2022-11-18T04:21:08.404Z,-3.48
2022-11-18T04:31:14.083Z,-3.44
2022-11-18T04:41:19.992Z,-3.46
2022-11-18T04:51:25.796Z,-3.52
2022-11-18T05:01:32.112Z,-3.47
2022-11-18T05:11:55.422Z,-3.41
2022-11-18T05:22:01.551Z,-3.40
2022-11-18T05:32:07.878Z,-3.39
2022-11-18T05:42:31.686Z,-3.39
2022-11-18T05:52:37.217Z,-3.33
2022-11-18T06:02:44.466Z,-3.31
2022-11-18T06:12:53.675Z,-3.36
2022-11-18T06:23:01.089Z,-3.30
2022-11-18T06:33:06.680Z,-3.29
2022-11-18T06:43:30.924Z,-3.35
2022-11-18T06:53:37.712Z,-3.38
2022-11-18T07:03:44.841Z,-3.37
2022-11-18T07:13:50.577Z,-3.27
2022-11-18T07:23:56.965Z,-3.18
2022-11-18T07:34:02.703Z,-3.12
2022-11-18T07:44:08.480Z,-3.17
2022-11-18T07:54:17.068Z,-3.16
2022-11-18T08:04:22.726Z,-3.14
2022-11-18T08:14:29.213Z,-3.18
2022-11-18T08:24:34.748Z,-3.19
2022-11-18T08:34:40.500Z,-3.18
2022-11-18T08:44:46.152Z,-3.14
2022-11-18T08:54:51.755Z,-3.25
2022-11-18T09:04:57.398Z,-3.20
2022-11-18T09:15:13.557Z,-3.16
2022-11-18T09:25:20.374Z,-3.09
2022-11-18T09:35:26.300Z,-2.98
2022-11-18T09:45:39.482Z,-2.85
2022-11-18T09:55:46.120Z,-2.59
2022-11-18T10:05:57.857Z,-2.35
2022-11-18T10:16:16.868Z,-2.20
2022-11-18T10:26:37.181Z,-2.17
2022-11-18T10:36:43.019Z,-2.16
2022-11-18T10:46:48.642Z,-2.05
2022-11-18T10:56:58.640Z,-2.01
2022-11-18T11:07:18.233Z,-2.04
2022-11-18T11:17:31.383Z,-2.01
2022-11-18T11:38:18.915Z,-1.73
2022-11-18T11:48:39.876Z,-1.44
2022-11-18T11:59:07.082Z,-1.41
2022-11-18T12:09:19.814Z,-1.56
2022-11-18T12:19:26.359Z,-1.75
2022-11-18T12:29:44.420Z,-1.79
2022-11-18T12:39:58.616Z,-1.82
2022-11-18T12:50:16.318Z,-1.91
2022-11-18T13:00:53.122Z,-1.87
2022-11-18T13:11:23.805Z,-1.62
2022-11-18T13:21:49.071Z,-1.64
2022-11-18T13:32:08.182Z,-1.70
2022-11-18T13:42:21.047Z,-1.80
2022-11-18T13:52:32.867Z,-1.95
2022-11-18T14:02:46.347Z,-2.05
2022-11-18T14:13:00.832Z,-2.11
2022-11-18T14:23:16.074Z,-2.18
2022-11-18T14:33:24.248Z,-2.22
2022-11-18T14:43:30.164Z,-2.26
2022-11-18T14:53:36.127Z,-2.28
2022-11-18T15:03:42.268Z,-2.28
2022-11-18T15:13:49.490Z,-2.31
2022-11-18T15:23:55.259Z,-2.35
2022-11-18T15:34:06.512Z,-2.42
2022-11-18T15:44:13.611Z,-2.46
2022-11-18T15:54:20.588Z,-2.52
2022-11-18T16:04:27.339Z,-2.57
2022-11-18T16:14:33.143Z,-2.65
2022-11-18T16:24:40.930Z,-2.68
2022-11-18T16:34:49.799Z,-2.73
2022-11-18T16:44:55.400Z,-2.81
2022-11-18T16:55:01.528Z,-2.84
2022-11-18T17:05:08.668Z,-2.87
2022-11-18T17:15:14.328Z,-2.90
2022-11-18T17:25:19.948Z,-2.91
2022-11-18T17:35:25.593Z,-2.94
2022-11-18T17:45:31.369Z,-3.01
2022-11-18T17:55:36.931Z,-3.02
2022-11-18T18:05:42.558Z,-3.07
2022-11-18T18:15:48.088Z,-3.09
2022-11-18T18:25:53.930Z,-3.03
2022-11-18T18:36:00.815Z,-2.99
2022-11-18T18:46:26.032Z,-2.93
2022-11-18T18:56:31.715Z,-2.95
2022-11-18T19:06:53.233Z,-3.07
2022-11-18T19:17:06.641Z,-3.23
2022-11-18T19:27:15.973Z,-3.27
2022-11-18T19:37:21.617Z,-3.32
2022-11-18T19:47:27.415Z,-3.38
2022-11-18T19:57:33.860Z,-3.45
2022-11-18T20:07:39.458Z,-3.60
2022-11-18T20:17:45.043Z,-3.66
2022-11-18T20:27:50.638Z,-3.66
2022-11-18T20:37:56.675Z,-3.71
2022-11-18T20:48:02.315Z,-3.76
2022-11-18T20:58:08.194Z,-3.90
2022-11-18T21:08:12.433Z,-4.27
2022-11-18T21:18:18.062Z,-4.56
2022-11-18T21:28:27.581Z,-4.93
2022-11-18T21:38:33.440Z,-5.18
2022-11-18T21:48:40.114Z,-5.39
2022-11-18T21:58:46.050Z,-5.52
2022-11-18T22:08:51.823Z,-5.68
2022-11-18T22:19:05.016Z,-5.81
2022-11-18T22:29:13.668Z,-5.81
2022-11-18T22:39:19.724Z,-5.90
2022-11-18T22:49:25.444Z,-5.96
2022-11-18T22:59:29.536Z,-5.87
2022-11-18T23:09:35.189Z,-5.88
2022-11-18T23:19:43.719Z,-5.92
2022-11-18T23:29:49.440Z,-5.89
2022-11-18T23:39:53.590Z,-5.65
2022-11-18T23:49:59.365Z,-5.43
